sensor_id;sensor_type;location;lat;lon;timestamp;pressure;altitude;pressure_sealevel;temperature;humidity
9740;BME280;4909;42.680;26.324;2022-10-16T00:00:40;99254.56;;;14.33;66.10
9740;BME280;4909;42.680;26.324;2022-10-16T00:03:08;99255.59;;;14.30;66.06
9740;BME280;4909;42.680;26.324;2022-10-16T00:05:38;99251.13;;;14.31;66.35
9740;BME280;4909;42.680;26.324;2022-10-16T00:08:06;99250.19;;;14.32;66.57
9740;BME280;4909;42.680;26.324;2022-10-16T00:10:33;99258.91;;;14.18;67.15
9740;BME280;4909;42.680;26.324;2022-10-16T00:13:01;99214.41;;;14.00;67.29
9740;BME280;4909;42.680;26.324;2022-10-16T00:15:28;99254.50;;;14.17;67.77
9740;BME280;4909;42.680;26.324;2022-10-16T00:17:55;99253.31;;;14.23;67.77
9740;BME280;4909;42.680;26.324;2022-10-16T00:20:22;99255.41;;;14.16;67.28
9740;BME280;4909;42.680;26.324;2022-10-16T00:22:49;99255.84;;;14.26;67.24
9740;BME280;4909;42.680;26.324;2022-10-16T00:25:16;99254.25;;;14.22;67.67
9740;BME280;4909;42.680;26.324;2022-10-16T00:27:42;99251.34;;;14.26;67.01
9740;BME280;4909;42.680;26.324;2022-10-16T00:30:11;99254.63;;;14.14;67.16
9740;BME280;4909;42.680;26.324;2022-10-16T00:32:38;99245.38;;;14.21;66.77
9740;BME280;4909;42.680;26.324;2022-10-16T00:35:05;99251.66;;;14.20;66.82
9740;BME280;4909;42.680;26.324;2022-10-16T00:37:32;99252.47;;;14.22;66.59
9740;BME280;4909;42.680;26.324;2022-10-16T00:39:58;99256.47;;;14.31;66.34
9740;BME280;4909;42.680;26.324;2022-10-16T00:42:25;99264.66;;;14.09;65.85
9740;BME280;4909;42.680;26.324;2022-10-16T00:44:53;99224.44;;;13.95;65.66
9740;BME280;4909;42.680;26.324;2022-10-16T00:47:27;99255.59;;;14.13;65.93
9740;BME280;4909;42.680;26.324;2022-10-16T00:50:00;99260.13;;;14.11;65.42
9740;BME280;4909;42.680;26.324;2022-10-16T00:52:28;99257.47;;;14.28;65.29
9740;BME280;4909;42.680;26.324;2022-10-16T00:54:55;99267.69;;;14.20;64.95
9740;BME280;4909;42.680;26.324;2022-10-16T00:57:23;99257.69;;;14.24;64.61
9740;BME280;4909;42.680;26.324;2022-10-16T00:59:51;99268.13;;;14.11;65.00
9740;BME280;4909;42.680;26.324;2022-10-16T01:02:18;99257.28;;;14.14;65.34
9740;BME280;4909;42.680;26.324;2022-10-16T01:04:49;99274.75;;;14.21;66.44
9740;BME280;4909;42.680;26.324;2022-10-16T01:07:30;99264.44;;;14.14;65.08
9740;BME280;4909;42.680;26.324;2022-10-16T01:10:06;99262.91;;;14.27;65.33
9740;BME280;4909;42.680;26.324;2022-10-16T01:12:39;99256.09;;;14.03;66.11
9740;BME280;4909;42.680;26.324;2022-10-16T01:15:11;99261.88;;;14.29;65.81
9740;BME280;4909;42.680;26.324;2022-10-16T01:17:45;99264.31;;;14.34;66.23
9740;BME280;4909;42.680;26.324;2022-10-16T01:20:22;99272.78;;;14.25;66.31
9740;BME280;4909;42.680;26.324;2022-10-16T01:23:09;99279.59;;;14.13;66.60
9740;BME280;4909;42.680;26.324;2022-10-16T01:25:49;99271.03;;;14.07;66.96
9740;BME280;4909;42.680;26.324;2022-10-16T01:28:27;99278.97;;;14.08;66.96
9740;BME280;4909;42.680;26.324;2022-10-16T01:30:59;99281.22;;;13.99;67.63
9740;BME280;4909;42.680;26.324;2022-10-16T01:33:30;99267.78;;;13.81;67.65
9740;BME280;4909;42.680;26.324;2022-10-16T01:36:07;99297.09;;;13.83;68.25
9740;BME280;4909;42.680;26.324;2022-10-16T01:38:38;99290.28;;;13.94;67.77
9740;BME280;4909;42.680;26.324;2022-10-16T01:41:08;99288.56;;;13.93;67.50
9740;BME280;4909;42.680;26.324;2022-10-16T01:43:40;99290.50;;;13.90;67.33
9740;BME280;4909;42.680;26.324;2022-10-16T01:46:08;99284.88;;;13.77;66.86
9740;BME280;4909;42.680;26.324;2022-10-16T01:48:37;99291.16;;;13.95;66.40
9740;BME280;4909;42.680;26.324;2022-10-16T01:51:06;99292.44;;;14.05;66.18
9740;BME280;4909;42.680;26.324;2022-10-16T01:53:35;99295.53;;;14.15;65.28
9740;BME280;4909;42.680;26.324;2022-10-16T01:56:06;99300.09;;;14.13;65.18
9740;BME280;4909;42.680;26.324;2022-10-16T01:58:40;99304.19;;;14.20;64.98
9740;BME280;4909;42.680;26.324;2022-10-16T02:01:10;99301.69;;;14.17;64.44
9740;BME280;4909;42.680;26.324;2022-10-16T02:03:40;99304.47;;;14.14;64.13
9740;BME280;4909;42.680;26.324;2022-10-16T02:06:09;99283.06;;;14.15;63.46
9740;BME280;4909;42.680;26.324;2022-10-16T02:08:37;99301.06;;;14.29;63.33
9740;BME280;4909;42.680;26.324;2022-10-16T02:11:06;99277.13;;;14.09;63.81
9740;BME280;4909;42.680;26.324;2022-10-16T02:13:37;99301.63;;;14.35;63.50
9740;BME280;4909;42.680;26.324;2022-10-16T02:16:08;99302.09;;;14.45;61.98
9740;BME280;4909;42.680;26.324;2022-10-16T02:18:36;99305.25;;;14.34;62.21
9740;BME280;4909;42.680;26.324;2022-10-16T02:21:07;99289.84;;;14.22;62.39
9740;BME280;4909;42.680;26.324;2022-10-16T02:23:46;99304.19;;;14.20;62.39
9740;BME280;4909;42.680;26.324;2022-10-16T02:26:19;99281.47;;;14.11;61.79
9740;BME280;4909;42.680;26.324;2022-10-16T02:28:54;99309.41;;;14.23;61.74
9740;BME280;4909;42.680;26.324;2022-10-16T02:31:26;99307.13;;;14.32;61.14
9740;BME280;4909;42.680;26.324;2022-10-16T02:33:55;99312.75;;;14.45;60.59
9740;BME280;4909;42.680;26.324;2022-10-16T02:36:24;99319.09;;;14.43;60.22
9740;BME280;4909;42.680;26.324;2022-10-16T02:38:52;99329.66;;;14.27;60.21
9740;BME280;4909;42.680;26.324;2022-10-16T02:41:20;99327.63;;;14.32;60.56
9740;BME280;4909;42.680;26.324;2022-10-16T02:43:47;99329.72;;;14.44;59.50
9740;BME280;4909;42.680;26.324;2022-10-16T02:46:15;99335.72;;;14.30;59.90
9740;BME280;4909;42.680;26.324;2022-10-16T02:48:44;99339.75;;;14.39;59.93
9740;BME280;4909;42.680;26.324;2022-10-16T02:51:11;99340.03;;;14.33;59.70
9740;BME280;4909;42.680;26.324;2022-10-16T02:53:38;99330.75;;;14.23;60.21
9740;BME280;4909;42.680;26.324;2022-10-16T02:56:05;99335.88;;;14.27;60.41
9740;BME280;4909;42.680;26.324;2022-10-16T02:58:32;99346.19;;;14.16;60.57
9740;BME280;4909;42.680;26.324;2022-10-16T03:00:58;99339.91;;;14.17;60.47
9740;BME280;4909;42.680;26.324;2022-10-16T03:03:25;99343.53;;;14.16;60.53
9740;BME280;4909;42.680;26.324;2022-10-16T03:05:53;99348.38;;;14.08;60.80
9740;BME280;4909;42.680;26.324;2022-10-16T03:08:20;99352.47;;;14.15;60.17
9740;BME280;4909;42.680;26.324;2022-10-16T03:10:49;99350.28;;;14.23;59.61
9740;BME280;4909;42.680;26.324;2022-10-16T03:13:15;99367.38;;;14.19;59.71
9740;BME280;4909;42.680;26.324;2022-10-16T03:15:43;99365.81;;;14.15;60.12
9740;BME280;4909;42.680;26.324;2022-10-16T03:18:10;99361.19;;;14.19;59.99
9740;BME280;4909;42.680;26.324;2022-10-16T03:20:37;99363.56;;;14.06;59.83
9740;BME280;4909;42.680;26.324;2022-10-16T03:23:05;99370.56;;;14.09;59.78
9740;BME280;4909;42.680;26.324;2022-10-16T03:25:33;99364.44;;;14.07;60.45
9740;BME280;4909;42.680;26.324;2022-10-16T03:28:00;99369.63;;;14.10;60.41
9740;BME280;4909;42.680;26.324;2022-10-16T03:30:27;99373.03;;;14.13;59.94
9740;BME280;4909;42.680;26.324;2022-10-16T03:32:54;99372.28;;;14.10;60.53
9740;BME280;4909;42.680;26.324;2022-10-16T03:35:20;99371.44;;;13.90;60.42
9740;BME280;4909;42.680;26.324;2022-10-16T03:37:47;99372.63;;;14.04;59.64
9740;BME280;4909;42.680;26.324;2022-10-16T03:40:16;99352.03;;;13.87;60.06
9740;BME280;4909;42.680;26.324;2022-10-16T03:42:43;99375.03;;;13.89;60.47
9740;BME280;4909;42.680;26.324;2022-10-16T03:45:10;99382.69;;;13.97;60.71
9740;BME280;4909;42.680;26.324;2022-10-16T03:47:37;99389.63;;;14.01;59.83
9740;BME280;4909;42.680;26.324;2022-10-16T03:50:05;99384.88;;;13.89;59.66
9740;BME280;4909;42.680;26.324;2022-10-16T03:52:32;99390.06;;;13.92;59.70
9740;BME280;4909;42.680;26.324;2022-10-16T03:54:59;99361.53;;;13.74;59.74
9740;BME280;4909;42.680;26.324;2022-10-16T03:57:27;99387.81;;;13.83;60.44
9740;BME280;4909;42.680;26.324;2022-10-16T03:59:54;99388.94;;;13.77;59.76
9740;BME280;4909;42.680;26.324;2022-10-16T04:02:21;99385.13;;;13.83;60.05
9740;BME280;4909;42.680;26.324;2022-10-16T04:04:47;99378.34;;;13.76;60.95
9740;BME280;4909;42.680;26.324;2022-10-16T04:07:14;99381.00;;;13.76;60.80
9740;BME280;4909;42.680;26.324;2022-10-16T04:09:41;99382.44;;;13.64;61.50
9740;BME280;4909;42.680;26.324;2022-10-16T04:12:08;99374.69;;;13.78;61.70
9740;BME280;4909;42.680;26.324;2022-10-16T04:14:36;99381.16;;;13.73;61.83
9740;BME280;4909;42.680;26.324;2022-10-16T04:17:03;99376.69;;;13.73;61.33
9740;BME280;4909;42.680;26.324;2022-10-16T04:19:30;99371.09;;;13.59;61.53
9740;BME280;4909;42.680;26.324;2022-10-16T04:21:56;99368.56;;;13.56;62.38
9740;BME280;4909;42.680;26.324;2022-10-16T04:24:23;99374.97;;;13.52;62.48
9740;BME280;4909;42.680;26.324;2022-10-16T04:26:50;99378.44;;;13.54;61.68
9740;BME280;4909;42.680;26.324;2022-10-16T04:29:17;99382.97;;;13.52;61.52
9740;BME280;4909;42.680;26.324;2022-10-16T04:31:46;99387.84;;;13.42;62.09
9740;BME280;4909;42.680;26.324;2022-10-16T04:34:13;99384.72;;;13.53;61.56
9740;BME280;4909;42.680;26.324;2022-10-16T04:36:40;99381.91;;;13.56;61.41
9740;BME280;4909;42.680;26.324;2022-10-16T04:39:06;99385.78;;;13.49;61.84
9740;BME280;4909;42.680;26.324;2022-10-16T04:41:33;99394.25;;;13.38;63.47
9740;BME280;4909;42.680;26.324;2022-10-16T04:44:00;99396.91;;;13.38;62.61
9740;BME280;4909;42.680;26.324;2022-10-16T04:46:27;99396.31;;;13.32;62.73
9740;BME280;4909;42.680;26.324;2022-10-16T04:48:55;99377.66;;;13.32;63.04
9740;BME280;4909;42.680;26.324;2022-10-16T04:51:22;99387.94;;;13.21;63.39
9740;BME280;4909;42.680;26.324;2022-10-16T04:53:49;99405.72;;;13.40;62.94
9740;BME280;4909;42.680;26.324;2022-10-16T04:56:15;99412.78;;;13.21;63.66
9740;BME280;4909;42.680;26.324;2022-10-16T04:58:42;99408.63;;;13.14;64.37
9740;BME280;4909;42.680;26.324;2022-10-16T05:01:09;99402.03;;;13.23;64.40
9740;BME280;4909;42.680;26.324;2022-10-16T05:03:36;99406.91;;;13.13;64.90
9740;BME280;4909;42.680;26.324;2022-10-16T05:06:06;99410.53;;;13.11;65.00
9740;BME280;4909;42.680;26.324;2022-10-16T05:08:34;99428.34;;;13.10;65.16
9740;BME280;4909;42.680;26.324;2022-10-16T05:11:01;99421.25;;;13.31;64.35
9740;BME280;4909;42.680;26.324;2022-10-16T05:13:28;99419.31;;;13.34;64.12
9740;BME280;4909;42.680;26.324;2022-10-16T05:15:54;99421.53;;;13.25;65.03
9740;BME280;4909;42.680;26.324;2022-10-16T05:18:22;99419.84;;;13.42;64.27
9740;BME280;4909;42.680;26.324;2022-10-16T05:20:49;99423.19;;;13.47;64.03
9740;BME280;4909;42.680;26.324;2022-10-16T05:23:17;99433.78;;;13.49;64.19
9740;BME280;4909;42.680;26.324;2022-10-16T05:25:52;99432.72;;;13.53;63.17
9740;BME280;4909;42.680;26.324;2022-10-16T05:28:19;99435.72;;;13.25;64.64
9740;BME280;4909;42.680;26.324;2022-10-16T05:30:45;99376.97;;;13.06;64.22
9740;BME280;4909;42.680;26.324;2022-10-16T05:33:12;99425.72;;;13.30;64.66
9740;BME280;4909;42.680;26.324;2022-10-16T05:35:39;99434.44;;;13.74;63.40
9740;BME280;4909;42.680;26.324;2022-10-16T05:38:06;99434.03;;;13.83;62.63
9740;BME280;4909;42.680;26.324;2022-10-16T05:40:34;99437.44;;;13.87;62.45
9740;BME280;4909;42.680;26.324;2022-10-16T05:43:01;99443.66;;;14.06;61.58
9740;BME280;4909;42.680;26.324;2022-10-16T05:45:27;99448.94;;;14.26;60.37
9740;BME280;4909;42.680;26.324;2022-10-16T05:47:54;99449.41;;;14.55;59.56
9740;BME280;4909;42.680;26.324;2022-10-16T05:50:21;99450.66;;;14.66;58.51
9740;BME280;4909;42.680;26.324;2022-10-16T05:52:48;99453.81;;;14.74;59.01
9740;BME280;4909;42.680;26.324;2022-10-16T05:55:15;99449.13;;;14.97;57.45
9740;BME280;4909;42.680;26.324;2022-10-16T05:57:43;99448.53;;;15.09;56.68
9740;BME280;4909;42.680;26.324;2022-10-16T06:00:10;99450.59;;;15.21;55.75
9740;BME280;4909;42.680;26.324;2022-10-16T06:02:37;99452.97;;;15.27;55.56
9740;BME280;4909;42.680;26.324;2022-10-16T06:05:04;99448.88;;;15.37;54.66
9740;BME280;4909;42.680;26.324;2022-10-16T06:07:34;99451.88;;;15.48;54.53
9740;BME280;4909;42.680;26.324;2022-10-16T06:10:01;99456.16;;;15.52;54.23
9740;BME280;4909;42.680;26.324;2022-10-16T06:12:28;99458.34;;;15.61;53.24
9740;BME280;4909;42.680;26.324;2022-10-16T06:14:56;99455.25;;;15.69;52.90
9740;BME280;4909;42.680;26.324;2022-10-16T06:17:23;99454.31;;;15.70;53.27
9740;BME280;4909;42.680;26.324;2022-10-16T06:19:49;99459.56;;;15.89;52.75
9740;BME280;4909;42.680;26.324;2022-10-16T06:22:16;99463.41;;;16.00;52.73
9740;BME280;4909;42.680;26.324;2022-10-16T06:24:43;99459.72;;;16.36;51.19
9740;BME280;4909;42.680;26.324;2022-10-16T06:27:10;99468.22;;;16.91;49.75
9740;BME280;4909;42.680;26.324;2022-10-16T06:29:37;99468.34;;;18.09;46.43
9740;BME280;4909;42.680;26.324;2022-10-16T06:32:05;99471.97;;;20.36;40.43
9740;BME280;4909;42.680;26.324;2022-10-16T06:34:32;99470.16;;;22.94;34.09
9740;BME280;4909;42.680;26.324;2022-10-16T06:36:58;99470.03;;;25.81;29.37
9740;BME280;4909;42.680;26.324;2022-10-16T06:39:25;99478.03;;;27.50;26.09
9740;BME280;4909;42.680;26.324;2022-10-16T06:41:52;99491.63;;;29.32;23.78
9740;BME280;4909;42.680;26.324;2022-10-16T06:44:19;99486.19;;;30.78;21.93
9740;BME280;4909;42.680;26.324;2022-10-16T06:46:45;99484.84;;;32.43;20.24
9740;BME280;4909;42.680;26.324;2022-10-16T06:49:14;99496.00;;;33.58;19.15
9740;BME280;4909;42.680;26.324;2022-10-16T06:51:46;99494.78;;;34.46;17.63
9740;BME280;4909;42.680;26.324;2022-10-16T06:54:15;99477.31;;;33.54;18.38
9740;BME280;4909;42.680;26.324;2022-10-16T06:56:43;99501.28;;;32.95;18.58
9740;BME280;4909;42.680;26.324;2022-10-16T06:59:10;99501.66;;;32.40;19.52
9740;BME280;4909;42.680;26.324;2022-10-16T07:01:36;99500.53;;;32.19;19.51
9740;BME280;4909;42.680;26.324;2022-10-16T07:04:03;99501.72;;;31.32;20.06
9740;BME280;4909;42.680;26.324;2022-10-16T07:06:33;99496.50;;;30.68;20.36
9740;BME280;4909;42.680;26.324;2022-10-16T07:09:02;99482.34;;;29.91;21.07
9740;BME280;4909;42.680;26.324;2022-10-16T07:11:29;99497.66;;;28.76;22.26
9740;BME280;4909;42.680;26.324;2022-10-16T07:13:56;99496.94;;;28.40;22.46
9740;BME280;4909;42.680;26.324;2022-10-16T07:16:25;99499.94;;;27.31;23.15
9740;BME280;4909;42.680;26.324;2022-10-16T07:18:53;99507.06;;;27.41;22.94
9740;BME280;4909;42.680;26.324;2022-10-16T07:21:24;99497.16;;;29.56;21.13
9740;BME280;4909;42.680;26.324;2022-10-16T07:23:54;99502.47;;;30.71;19.99
9740;BME280;4909;42.680;26.324;2022-10-16T07:26:21;99506.16;;;32.55;18.51
9740;BME280;4909;42.680;26.324;2022-10-16T07:28:48;99485.63;;;33.96;17.08
9740;BME280;4909;42.680;26.324;2022-10-16T07:31:16;99502.78;;;35.44;16.16
9740;BME280;4909;42.680;26.324;2022-10-16T07:33:44;99518.41;;;35.17;15.49
9740;BME280;4909;42.680;26.324;2022-10-16T07:36:14;99503.25;;;34.72;16.10
9740;BME280;4909;42.680;26.324;2022-10-16T07:38:41;99507.84;;;33.95;16.68
9740;BME280;4909;42.680;26.324;2022-10-16T07:41:12;99505.28;;;34.64;15.91
9740;BME280;4909;42.680;26.324;2022-10-16T07:43:39;99509.34;;;34.40;16.37
9740;BME280;4909;42.680;26.324;2022-10-16T07:46:06;99479.94;;;35.16;15.85
9740;BME280;4909;42.680;26.324;2022-10-16T07:48:34;99515.59;;;36.26;15.18
9740;BME280;4909;42.680;26.324;2022-10-16T07:51:02;99515.59;;;36.78;14.75
9740;BME280;4909;42.680;26.324;2022-10-16T07:53:29;99502.63;;;36.39;14.41
9740;BME280;4909;42.680;26.324;2022-10-16T07:55:59;99519.63;;;36.76;14.18
9740;BME280;4909;42.680;26.324;2022-10-16T07:58:28;99521.28;;;37.03;14.18
9740;BME280;4909;42.680;26.324;2022-10-16T08:00:55;99511.47;;;37.00;13.84
9740;BME280;4909;42.680;26.324;2022-10-16T08:03:22;99515.38;;;36.40;14.29
9740;BME280;4909;42.680;26.324;2022-10-16T08:05:49;99514.88;;;36.04;14.24
9740;BME280;4909;42.680;26.324;2022-10-16T08:08:18;99509.41;;;35.09;14.82
9740;BME280;4909;42.680;26.324;2022-10-16T08:10:44;99498.44;;;35.69;13.92
9740;BME280;4909;42.680;26.324;2022-10-16T08:13:11;99493.41;;;35.32;14.26
9740;BME280;4909;42.680;26.324;2022-10-16T08:15:42;99460.22;;;35.80;13.72
9740;BME280;4909;42.680;26.324;2022-10-16T08:18:09;99497.69;;;36.02;13.82
9740;BME280;4909;42.680;26.324;2022-10-16T08:20:36;99488.00;;;35.65;14.39
9740;BME280;4909;42.680;26.324;2022-10-16T08:23:03;99491.53;;;36.06;13.98
9740;BME280;4909;42.680;26.324;2022-10-16T08:25:30;99486.38;;;35.77;14.01
9740;BME280;4909;42.680;26.324;2022-10-16T08:27:57;99497.72;;;35.54;14.49
9740;BME280;4909;42.680;26.324;2022-10-16T08:30:24;99496.94;;;34.57;14.41
9740;BME280;4909;42.680;26.324;2022-10-16T08:32:52;99509.38;;;33.97;15.24
9740;BME280;4909;42.680;26.324;2022-10-16T08:35:19;99506.72;;;33.68;15.15
9740;BME280;4909;42.680;26.324;2022-10-16T08:37:46;99491.31;;;33.74;15.11
9740;BME280;4909;42.680;26.324;2022-10-16T08:40:18;99498.06;;;33.71;15.10
9740;BME280;4909;42.680;26.324;2022-10-16T08:46:27;99510.06;;;32.61;16.19
9740;BME280;4909;42.680;26.324;2022-10-16T08:48:59;99507.47;;;32.45;16.27
9740;BME280;4909;42.680;26.324;2022-10-16T08:51:30;99506.53;;;31.92;16.18
9740;BME280;4909;42.680;26.324;2022-10-16T08:53:59;99495.44;;;31.55;17.04
9740;BME280;4909;42.680;26.324;2022-10-16T08:56:28;99493.28;;;31.11;16.99
9740;BME280;4909;42.680;26.324;2022-10-16T08:58:55;99490.56;;;30.95;17.23
9740;BME280;4909;42.680;26.324;2022-10-16T09:01:37;99494.28;;;29.82;17.83
9740;BME280;4909;42.680;26.324;2022-10-16T09:04:34;99488.81;;;29.82;18.33
9740;BME280;4909;42.680;26.324;2022-10-16T09:07:11;99495.72;;;28.94;18.84
9740;BME280;4909;42.680;26.324;2022-10-16T09:09:57;99489.06;;;28.37;19.35
9740;BME280;4909;42.680;26.324;2022-10-16T09:12:32;99496.22;;;28.38;20.03
9740;BME280;4909;42.680;26.324;2022-10-16T09:15:14;99483.50;;;27.67;20.33
9740;BME280;4909;42.680;26.324;2022-10-16T09:17:50;99479.47;;;27.54;20.65
9740;BME280;4909;42.680;26.324;2022-10-16T09:20:34;99486.66;;;26.63;21.46
9740;BME280;4909;42.680;26.324;2022-10-16T09:23:13;99481.72;;;26.20;21.78
9740;BME280;4909;42.680;26.324;2022-10-16T09:25:43;99487.22;;;26.01;22.26
9740;BME280;4909;42.680;26.324;2022-10-16T09:28:11;99465.44;;;25.43;21.63
9740;BME280;4909;42.680;26.324;2022-10-16T09:30:38;99478.97;;;25.05;22.35
9740;BME280;4909;42.680;26.324;2022-10-16T09:33:05;99500.53;;;24.97;23.08
9740;BME280;4909;42.680;26.324;2022-10-16T09:35:37;99503.13;;;24.68;23.49
9740;BME280;4909;42.680;26.324;2022-10-16T09:38:04;99497.88;;;24.86;22.95
9740;BME280;4909;42.680;26.324;2022-10-16T09:40:33;99502.03;;;24.59;23.35
9740;BME280;4909;42.680;26.324;2022-10-16T09:43:16;99502.59;;;23.70;24.54
9740;BME280;4909;42.680;26.324;2022-10-16T09:45:56;99497.38;;;23.47;24.08
9740;BME280;4909;42.680;26.324;2022-10-16T09:48:25;99488.50;;;23.33;24.15
9740;BME280;4909;42.680;26.324;2022-10-16T09:50:59;99496.88;;;22.99;24.65
9740;BME280;4909;42.680;26.324;2022-10-16T09:53:39;99487.88;;;22.65;25.11
9740;BME280;4909;42.680;26.324;2022-10-16T09:56:09;99482.69;;;22.62;25.33
9740;BME280;4909;42.680;26.324;2022-10-16T09:58:42;99478.53;;;22.69;25.41
9740;BME280;4909;42.680;26.324;2022-10-16T10:01:13;99484.19;;;22.77;25.62
9740;BME280;4909;42.680;26.324;2022-10-16T10:03:42;99480.63;;;22.65;24.90
9740;BME280;4909;42.680;26.324;2022-10-16T10:06:25;99473.22;;;22.67;25.03
9740;BME280;4909;42.680;26.324;2022-10-16T10:09:15;99472.88;;;22.72;25.30
9740;BME280;4909;42.680;26.324;2022-10-16T10:11:55;99467.59;;;22.59;25.65
9740;BME280;4909;42.680;26.324;2022-10-16T10:14:25;99469.78;;;22.32;25.83
9740;BME280;4909;42.680;26.324;2022-10-16T10:17:09;99465.66;;;21.93;26.54
9740;BME280;4909;42.680;26.324;2022-10-16T10:19:40;99470.75;;;22.20;26.26
9740;BME280;4909;42.680;26.324;2022-10-16T10:22:23;99471.22;;;22.02;26.25
9740;BME280;4909;42.680;26.324;2022-10-16T10:31:03;99456.59;;;22.05;26.11
9740;BME280;4909;42.680;26.324;2022-10-16T10:33:40;99456.22;;;21.98;25.92
9740;BME280;4909;42.680;26.324;2022-10-16T10:36:16;99451.38;;;21.91;25.91
9740;BME280;4909;42.680;26.324;2022-10-16T10:38:50;99451.91;;;21.96;25.35
9740;BME280;4909;42.680;26.324;2022-10-16T10:44:26;99440.94;;;21.51;25.18
9740;BME280;4909;42.680;26.324;2022-10-16T10:47:00;99436.22;;;21.66;25.04
9740;BME280;4909;42.680;26.324;2022-10-16T10:49:41;99438.78;;;21.33;25.67
9740;BME280;4909;42.680;26.324;2022-10-16T10:52:33;99423.16;;;21.60;25.85
9740;BME280;4909;42.680;26.324;2022-10-16T10:55:15;99434.69;;;21.51;26.26
9740;BME280;4909;42.680;26.324;2022-10-16T11:00:46;99425.50;;;21.64;27.00
9740;BME280;4909;42.680;26.324;2022-10-16T11:03:29;99433.75;;;21.63;27.51
9740;BME280;4909;42.680;26.324;2022-10-16T11:05:59;99429.34;;;21.73;27.33
9740;BME280;4909;42.680;26.324;2022-10-16T11:08:32;99424.22;;;21.81;27.06
9740;BME280;4909;42.680;26.324;2022-10-16T11:11:06;99425.84;;;21.60;27.20
9740;BME280;4909;42.680;26.324;2022-10-16T11:13:38;99420.41;;;21.38;27.80
9740;BME280;4909;42.680;26.324;2022-10-16T11:16:13;99426.56;;;21.51;27.41
9740;BME280;4909;42.680;26.324;2022-10-16T11:18:47;99427.38;;;21.40;27.41
9740;BME280;4909;42.680;26.324;2022-10-16T11:21:18;99429.00;;;21.43;26.64
9740;BME280;4909;42.680;26.324;2022-10-16T11:23:51;99434.16;;;21.46;27.12
9740;BME280;4909;42.680;26.324;2022-10-16T11:26:25;99439.50;;;21.58;26.72
9740;BME280;4909;42.680;26.324;2022-10-16T11:28:55;99428.03;;;21.44;26.38
9740;BME280;4909;42.680;26.324;2022-10-16T11:31:29;99442.56;;;21.65;27.26
9740;BME280;4909;42.680;26.324;2022-10-16T11:34:04;99432.72;;;21.53;26.87
9740;BME280;4909;42.680;26.324;2022-10-16T11:36:39;99438.84;;;21.44;27.01
9740;BME280;4909;42.680;26.324;2022-10-16T11:39:17;99434.59;;;21.29;26.78
9740;BME280;4909;42.680;26.324;2022-10-16T11:41:49;99434.09;;;21.23;27.36
9740;BME280;4909;42.680;26.324;2022-10-16T11:44:36;99443.28;;;21.08;27.30
9740;BME280;4909;42.680;26.324;2022-10-16T11:47:15;99445.38;;;21.05;27.20
9740;BME280;4909;42.680;26.324;2022-10-16T11:49:49;99451.28;;;20.86;27.85
9740;BME280;4909;42.680;26.324;2022-10-16T11:52:22;99450.25;;;20.63;27.67
9740;BME280;4909;42.680;26.324;2022-10-16T11:54:52;99457.78;;;20.71;27.10
9740;BME280;4909;42.680;26.324;2022-10-16T11:57:23;99445.63;;;20.53;27.75
9740;BME280;4909;42.680;26.324;2022-10-16T11:59:54;99459.53;;;20.59;28.32
9740;BME280;4909;42.680;26.324;2022-10-16T12:02:31;99452.72;;;20.66;28.13
9740;BME280;4909;42.680;26.324;2022-10-16T12:05:07;99454.66;;;20.64;29.10
9740;BME280;4909;42.680;26.324;2022-10-16T12:07:47;99451.78;;;20.55;27.94
9740;BME280;4909;42.680;26.324;2022-10-16T12:10:21;99449.06;;;20.55;28.38
9740;BME280;4909;42.680;26.324;2022-10-16T12:12:50;99451.25;;;20.50;28.33
9740;BME280;4909;42.680;26.324;2022-10-16T12:15:23;99455.34;;;20.30;28.85
9740;BME280;4909;42.680;26.324;2022-10-16T12:17:51;99452.97;;;20.13;28.83
9740;BME280;4909;42.680;26.324;2022-10-16T12:20:26;99449.09;;;20.17;29.38
9740;BME280;4909;42.680;26.324;2022-10-16T12:22:57;99452.13;;;20.12;30.06
9740;BME280;4909;42.680;26.324;2022-10-16T12:25:27;99444.88;;;20.25;29.93
9740;BME280;4909;42.680;26.324;2022-10-16T12:27:59;99452.63;;;20.30;30.00
9740;BME280;4909;42.680;26.324;2022-10-16T12:30:29;99451.38;;;20.35;30.08
9740;BME280;4909;42.680;26.324;2022-10-16T12:32:58;99460.44;;;20.34;29.83
9740;BME280;4909;42.680;26.324;2022-10-16T12:35:29;99458.25;;;20.39;30.41
9740;BME280;4909;42.680;26.324;2022-10-16T12:38:06;99457.69;;;20.60;30.28
9740;BME280;4909;42.680;26.324;2022-10-16T12:40:35;99462.75;;;20.64;30.32
9740;BME280;4909;42.680;26.324;2022-10-16T12:43:39;99465.56;;;20.63;29.51
9740;BME280;4909;42.680;26.324;2022-10-16T12:46:23;99471.56;;;20.43;29.51
9740;BME280;4909;42.680;26.324;2022-10-16T12:48:52;99464.19;;;20.19;29.88
9740;BME280;4909;42.680;26.324;2022-10-16T12:51:24;99472.69;;;20.26;29.74
9740;BME280;4909;42.680;26.324;2022-10-16T12:54:01;99475.72;;;20.21;30.09
9740;BME280;4909;42.680;26.324;2022-10-16T12:56:38;99467.22;;;20.27;29.83
9740;BME280;4909;42.680;26.324;2022-10-16T12:59:16;99477.81;;;20.30;29.73
9740;BME280;4909;42.680;26.324;2022-10-16T13:01:59;99479.63;;;20.43;29.51
9740;BME280;4909;42.680;26.324;2022-10-16T13:04:54;99470.78;;;20.41;29.69
9740;BME280;4909;42.680;26.324;2022-10-16T13:07:40;99477.78;;;20.18;29.23
9740;BME280;4909;42.680;26.324;2022-10-16T13:10:15;99478.09;;;20.13;29.21
9740;BME280;4909;42.680;26.324;2022-10-16T13:13:02;99484.56;;;20.23;29.76
9740;BME280;4909;42.680;26.324;2022-10-16T13:15:53;99468.16;;;20.01;28.80
9740;BME280;4909;42.680;26.324;2022-10-16T13:18:29;99487.34;;;19.96;29.30
9740;BME280;4909;42.680;26.324;2022-10-16T13:21:16;99475.28;;;20.02;29.18
9740;BME280;4909;42.680;26.324;2022-10-16T13:23:51;99475.94;;;19.93;29.31
9740;BME280;4909;42.680;26.324;2022-10-16T13:26:28;99471.84;;;19.87;29.51
9740;BME280;4909;42.680;26.324;2022-10-16T13:29:01;99468.91;;;19.78;30.11
9740;BME280;4909;42.680;26.324;2022-10-16T13:31:30;99470.59;;;19.66;29.71
9740;BME280;4909;42.680;26.324;2022-10-16T13:33:58;99473.34;;;19.79;30.16
9740;BME280;4909;42.680;26.324;2022-10-16T13:36:28;99475.66;;;19.71;29.89
9740;BME280;4909;42.680;26.324;2022-10-16T13:39:01;99471.59;;;19.65;30.17
9740;BME280;4909;42.680;26.324;2022-10-16T13:41:33;99486.44;;;19.71;29.97
9740;BME280;4909;42.680;26.324;2022-10-16T13:43:59;99482.78;;;19.72;29.65